createdAt,value
2023-02-03T00:11:25.096Z,100203.78
2023-02-03T00:13:51.317Z,100184.13
2023-02-03T00:16:17.541Z,100172.44
2023-02-03T00:18:43.773Z,100155.00
2023-02-03T00:21:09.965Z,100124.91
2023-02-03T00:23:36.187Z,100114.41
2023-02-03T00:26:12.694Z,100094.59
2023-02-03T00:28:38.929Z,100083.94
2023-02-03T00:31:05.204Z,100060.94
2023-02-03T00:33:31.435Z,100031.22
2023-02-03T00:35:57.675Z,100010.63
2023-02-03T00:38:26.730Z,99994.19
2023-02-03T00:40:53.050Z,99984.28
2023-02-03T00:43:19.490Z,99969.25
2023-02-03T00:45:45.745Z,99952.03
2023-02-03T00:48:11.987Z,99940.72
2023-02-03T00:50:38.187Z,99918.94
2023-02-03T00:53:04.399Z,99896.19
2023-02-03T00:55:30.623Z,99879.34
2023-02-03T00:57:56.822Z,99869.47
2023-02-03T01:00:23.103Z,99848.28
2023-02-03T01:02:49.322Z,99844.50
2023-02-03T01:05:15.540Z,99838.16
2023-02-03T01:07:41.737Z,99826.84
2023-02-03T01:10:08.078Z,99811.81
2023-02-03T01:12:34.283Z,99801.53
2023-02-03T01:15:00.509Z,99790.38
2023-02-03T01:17:26.710Z,99767.59
2023-02-03T01:19:52.920Z,99751.34
2023-02-03T01:22:19.122Z,99752.31
2023-02-03T01:24:45.347Z,99727.53
2023-02-03T01:27:11.546Z,99733.84
2023-02-03T01:29:37.795Z,99715.25
2023-02-03T01:32:04.019Z,99683.56
2023-02-03T01:34:30.255Z,99683.53
2023-02-03T01:36:56.450Z,99679.34
2023-02-03T01:39:22.710Z,99659.16
2023-02-03T01:41:48.920Z,99645.84
2023-02-03T01:44:33.995Z,99634.31
2023-02-03T01:47:00.200Z,99593.34
2023-02-03T01:49:27.522Z,99559.84
2023-02-03T01:51:53.728Z,99540.81
2023-02-03T01:54:26.835Z,99501.34
2023-02-03T01:56:54.791Z,99484.22
2023-02-03T01:59:21.023Z,99481.44
2023-02-03T02:01:47.283Z,99484.22
2023-02-03T02:04:13.527Z,99451.88
2023-02-03T02:06:39.744Z,99437.03
2023-02-03T02:09:05.962Z,99413.84
2023-02-03T02:11:32.179Z,99401.88
2023-02-03T02:14:00.209Z,99382.16
2023-02-03T02:16:55.882Z,99354.19
2023-02-03T02:19:40.962Z,99319.56
2023-02-03T02:22:21.896Z,99286.19
2023-02-03T02:25:03.710Z,99287.84
2023-02-03T02:27:33.498Z,99270.59
2023-02-03T02:30:02.689Z,99226.13
2023-02-03T02:32:30.840Z,99197.69
2023-02-03T02:35:17.891Z,99183.69
2023-02-03T02:37:59.351Z,99160.38
2023-02-03T02:43:41.475Z,99097.59
2023-02-03T02:46:15.856Z,99085.03
2023-02-03T02:48:49.673Z,99050.03
2023-02-03T02:51:15.893Z,99016.84
2023-02-03T02:53:46.680Z,98986.13
2023-02-03T02:56:15.305Z,98967.19
2023-02-03T02:58:41.859Z,98950.06
2023-02-03T03:01:08.244Z,98933.38
2023-02-03T03:03:34.501Z,98909.75
2023-02-03T03:06:05.021Z,98890.63
2023-02-03T03:08:33.103Z,98869.13
2023-02-03T03:10:59.312Z,98825.09
2023-02-03T03:13:27.603Z,98789.38
2023-02-03T03:15:53.874Z,98754.16
2023-02-03T03:18:24.664Z,98715.22
2023-02-03T03:20:50.968Z,98679.53
2023-02-03T03:23:21.844Z,98656.06
2023-02-03T03:25:49.435Z,98597.31
2023-02-03T03:28:16.716Z,98564.59
2023-02-03T03:30:43.000Z,98522.78
2023-02-03T03:33:09.228Z,98484.34
2023-02-03T03:35:47.154Z,98437.16
2023-02-03T03:38:16.307Z,98396.56
2023-02-03T03:40:43.526Z,98364.56
2023-02-03T03:43:14.687Z,98329.69
2023-02-03T03:45:45.518Z,98295.06
2023-02-03T03:48:13.000Z,98260.16
2023-02-03T03:50:41.663Z,98230.94
2023-02-03T03:53:07.870Z,98195.56
2023-02-03T03:55:34.325Z,98165.53
2023-02-03T03:58:04.734Z,98115.88
2023-02-03T04:00:31.660Z,98085.38
2023-02-03T04:02:58.290Z,98035.22
2023-02-03T04:05:24.535Z,98001.84
2023-02-03T04:07:50.730Z,97966.34
2023-02-03T04:10:27.587Z,97925.97
2023-02-03T04:12:53.971Z,97896.41
2023-02-03T04:15:20.184Z,97875.41
2023-02-03T04:17:46.385Z,97829.28
2023-02-03T04:20:12.705Z,97797.94
2023-02-03T04:22:38.905Z,97783.66
2023-02-03T04:25:05.319Z,97742.25
2023-02-03T04:27:31.519Z,97725.44
2023-02-03T04:29:57.733Z,97664.56
2023-02-03T04:32:23.952Z,97647.31
2023-02-03T04:34:50.175Z,97634.00
2023-02-03T04:37:16.382Z,97623.28
2023-02-03T04:39:42.597Z,97617.44
2023-02-03T04:42:08.808Z,97637.69
2023-02-03T04:44:35.044Z,97646.22
2023-02-03T04:47:01.241Z,97639.38
2023-02-03T04:49:27.448Z,97630.31
2023-02-03T04:51:53.672Z,97628.25
2023-02-03T04:54:19.908Z,97609.38
2023-02-03T04:56:46.130Z,97603.44
2023-02-03T04:59:12.343Z,97584.16
2023-02-03T05:01:38.537Z,97595.09
2023-02-03T05:04:04.811Z,97577.63
2023-02-03T05:06:31.031Z,97581.84
2023-02-03T05:08:57.736Z,97566.22
2023-02-03T05:11:23.963Z,97552.00
2023-02-03T05:13:50.180Z,97552.88
2023-02-03T05:16:16.461Z,97553.75
2023-02-03T05:18:42.692Z,97548.94
2023-02-03T05:21:08.912Z,97544.06
2023-02-03T05:23:36.761Z,97530.53
2023-02-03T05:26:03.130Z,97530.81
2023-02-03T05:28:29.329Z,97508.75
2023-02-03T05:30:57.804Z,97507.50
2023-02-03T05:33:24.047Z,97504.31
2023-02-03T05:35:50.271Z,97499.13
2023-02-03T05:38:16.486Z,97492.31
2023-02-03T05:40:42.702Z,97511.31
2023-02-03T05:43:08.905Z,97496.25
2023-02-03T05:45:35.178Z,97489.41
2023-02-03T05:48:01.440Z,97485.22
2023-02-03T05:50:28.391Z,97468.13
2023-02-03T05:52:54.791Z,97468.38
2023-02-03T05:55:21.010Z,97461.81
2023-02-03T05:57:47.210Z,97452.69
2023-02-03T06:00:13.676Z,97429.66
2023-02-03T06:02:39.867Z,97411.88
2023-02-03T06:05:06.298Z,97400.88
2023-02-03T06:07:32.499Z,97377.38
2023-02-03T06:09:58.718Z,97347.94
2023-02-03T06:12:26.462Z,97333.16
2023-02-03T06:14:53.715Z,97312.16
2023-02-03T06:17:19.917Z,97286.63
2023-02-03T06:19:46.155Z,97270.00
2023-02-03T06:22:12.354Z,97270.13
2023-02-03T06:27:18.730Z,97254.59
2023-02-03T06:29:44.962Z,97250.81
2023-02-03T06:32:11.297Z,97245.00
2023-02-03T06:34:37.549Z,97251.69
2023-02-03T06:37:03.778Z,97243.06
2023-02-03T06:39:29.984Z,97225.69
2023-02-03T06:41:56.193Z,97227.50
2023-02-03T06:44:22.447Z,97229.97
2023-02-03T06:46:48.700Z,97239.25
2023-02-03T06:49:14.902Z,97230.88
2023-02-03T06:51:41.108Z,97243.84
2023-02-03T06:54:07.316Z,97249.31
2023-02-03T06:56:33.550Z,97245.66
2023-02-03T06:58:59.756Z,97237.78
2023-02-03T07:01:26.038Z,97243.75
2023-02-03T07:03:52.340Z,97241.91
2023-02-03T07:06:18.554Z,97245.41
2023-02-03T07:08:44.748Z,97261.28
2023-02-03T07:11:10.990Z,97269.19
2023-02-03T07:13:37.205Z,97292.41
2023-02-03T07:16:03.566Z,97280.63
2023-02-03T07:18:46.850Z,97277.75
2023-02-03T07:21:14.213Z,97294.84
2023-02-03T07:23:40.503Z,97233.06
2023-02-03T07:26:06.856Z,97221.94
2023-02-03T07:28:36.337Z,97267.44
2023-02-03T07:31:03.019Z,97274.84
2023-02-03T07:33:29.262Z,97254.47
2023-02-03T07:35:55.889Z,97261.59
2023-02-03T07:38:22.187Z,97262.09
2023-02-03T07:40:48.428Z,97246.38
2023-02-03T07:43:14.635Z,97249.88
2023-02-03T07:45:40.856Z,97266.97
2023-02-03T07:48:08.921Z,97265.16
2023-02-03T07:50:35.140Z,97289.72
2023-02-03T07:53:01.369Z,97300.59
2023-02-03T07:55:28.618Z,97305.78
2023-02-03T07:57:55.219Z,97330.19
2023-02-03T08:00:21.499Z,97343.34
2023-02-03T08:02:47.706Z,97375.38
2023-02-03T08:05:14.126Z,97439.78
2023-02-03T08:07:40.466Z,97484.72
2023-02-03T08:10:07.002Z,97513.06
2023-02-03T08:12:33.312Z,97590.16
2023-02-03T08:14:59.544Z,97693.66
2023-02-03T08:17:25.770Z,97760.34
2023-02-03T08:19:52.043Z,97840.47
2023-02-03T08:22:18.254Z,97898.41
2023-02-03T08:24:44.716Z,97974.09
2023-02-03T08:27:11.712Z,98048.88
2023-02-03T08:29:37.962Z,98118.28
2023-02-03T08:32:05.403Z,98191.69
2023-02-03T08:34:32.542Z,98256.25
2023-02-03T08:39:39.860Z,98406.44
2023-02-03T08:42:06.193Z,98493.88
2023-02-03T08:44:32.405Z,98609.75
2023-02-03T08:46:58.782Z,98691.47
2023-02-03T08:49:28.744Z,98767.47
2023-02-03T08:51:56.284Z,98850.16
2023-02-03T08:54:22.510Z,98898.44
2023-02-03T08:56:50.725Z,98952.38
2023-02-03T08:59:17.120Z,99015.41
2023-02-03T09:01:43.342Z,99064.47
2023-02-03T09:04:09.541Z,99140.50
2023-02-03T09:06:35.881Z,99190.03
2023-02-03T09:09:02.276Z,99209.47
2023-02-03T09:11:29.051Z,99245.25
2023-02-03T09:13:55.277Z,99258.03
2023-02-03T09:16:21.621Z,99284.75
2023-02-03T09:18:49.858Z,99305.47
2023-02-03T09:21:31.622Z,99308.09
2023-02-03T09:24:03.017Z,99338.53
2023-02-03T09:26:29.237Z,99366.84
2023-02-03T09:28:55.447Z,99371.97
2023-02-03T09:31:21.818Z,99383.16
2023-02-03T09:33:48.041Z,99387.56
2023-02-03T09:36:14.275Z,99395.88
2023-02-03T09:38:41.500Z,99415.06
2023-02-03T09:41:12.105Z,99454.53
2023-02-03T09:43:45.892Z,99452.63
2023-02-03T09:46:12.200Z,99487.38
2023-02-03T09:48:40.781Z,99512.00
2023-02-03T09:51:07.341Z,99517.72
2023-02-03T09:53:35.794Z,99523.81
2023-02-03T09:56:02.016Z,99536.97
2023-02-03T09:58:29.231Z,99538.81
2023-02-03T10:00:59.229Z,99567.09
2023-02-03T10:03:44.260Z,99582.53
2023-02-03T10:06:18.837Z,99583.72
2023-02-03T10:09:03.441Z,99603.41
2023-02-03T10:11:38.831Z,99626.25
2023-02-03T10:14:11.132Z,99645.81
2023-02-03T10:16:43.124Z,99667.31
2023-02-03T10:19:11.257Z,99671.59
2023-02-03T10:21:51.341Z,99661.88
2023-02-03T10:24:24.041Z,99644.56
2023-02-03T10:26:50.410Z,99603.97
2023-02-03T10:29:16.688Z,99597.66
2023-02-03T10:31:43.247Z,99610.84
2023-02-03T10:34:13.805Z,99631.91
2023-02-03T10:36:40.034Z,99634.66
2023-02-03T10:39:18.558Z,99650.94
2023-02-03T10:41:47.857Z,99669.03
2023-02-03T10:44:14.372Z,99698.03
2023-02-03T10:46:42.118Z,99712.03
2023-02-03T10:49:10.733Z,99722.44
2023-02-03T10:51:37.646Z,99770.56
2023-02-03T10:54:04.197Z,99816.53
2023-02-03T10:56:35.358Z,99865.41
2023-02-03T10:59:01.583Z,99904.34
2023-02-03T11:01:28.762Z,99914.50
2023-02-03T11:03:54.963Z,99930.94
2023-02-03T11:06:21.163Z,99955.19
2023-02-03T11:08:47.977Z,99968.44
2023-02-03T11:11:19.915Z,99961.81
2023-02-03T11:13:46.158Z,99959.41
2023-02-03T11:16:14.029Z,99939.69
2023-02-03T11:18:47.700Z,99965.13
2023-02-03T11:21:15.136Z,99951.53
2023-02-03T11:24:10.727Z,99938.88
2023-02-03T11:26:57.155Z,99922.28
2023-02-03T11:29:24.176Z,99918.84
2023-02-03T11:31:51.420Z,99919.94
2023-02-03T11:34:19.111Z,99888.09
2023-02-03T11:36:45.337Z,99888.09
2023-02-03T11:39:11.688Z,99915.72
2023-02-03T11:41:39.349Z,99901.47
2023-02-03T11:44:12.421Z,99928.06
2023-02-03T11:46:39.035Z,99901.91
2023-02-03T11:49:15.089Z,99876.97
2023-02-03T11:51:46.645Z,99880.38
2023-02-03T11:54:15.872Z,99905.84
2023-02-03T11:56:50.555Z,99862.81
2023-02-03T11:59:46.427Z,99851.34
2023-02-03T12:02:36.219Z,99843.06
2023-02-03T12:05:15.245Z,99830.72
2023-02-03T12:07:50.285Z,99797.13
2023-02-03T12:10:25.801Z,99768.38
2023-02-03T12:13:10.827Z,99781.38
2023-02-03T12:15:41.762Z,99739.66
2023-02-03T12:18:46.765Z,99720.44
2023-02-03T12:21:31.472Z,99702.78
2023-02-03T12:24:03.152Z,99682.53
2023-02-03T12:26:50.730Z,99697.03
2023-02-03T12:29:27.592Z,99701.97
2023-02-03T12:31:56.866Z,99714.41
2023-02-03T12:34:33.358Z,99735.09
2023-02-03T12:37:04.643Z,99750.94
2023-02-03T12:39:33.209Z,99760.59
2023-02-03T12:42:18.375Z,99785.47
2023-02-03T12:44:48.804Z,99840.84
2023-02-03T12:47:21.240Z,99854.72
2023-02-03T12:49:49.331Z,99852.81
2023-02-03T12:52:21.044Z,99879.56
2023-02-03T12:54:49.783Z,100011.78
2023-02-03T12:57:36.228Z,100103.38
2023-02-03T13:00:04.846Z,100185.34
2023-02-03T13:02:32.771Z,100237.78
2023-02-03T13:05:05.391Z,100299.81
2023-02-03T13:07:43.075Z,100308.38
2023-02-03T13:10:14.790Z,100335.75
2023-02-03T13:12:45.547Z,100350.94
2023-02-03T13:15:20.497Z,100353.91
2023-02-03T13:17:48.729Z,100339.59
2023-02-03T13:20:21.938Z,100323.59
2023-02-03T13:22:48.172Z,100314.84
2023-02-03T13:25:29.483Z,100293.06
2023-02-03T13:27:58.827Z,100298.97
2023-02-03T13:30:28.940Z,100282.81
2023-02-03T13:32:58.329Z,100297.69
2023-02-03T13:35:34.281Z,100279.09
2023-02-03T13:38:07.362Z,100273.91
2023-02-03T13:40:52.376Z,100289.09
2023-02-03T13:43:36.905Z,100306.00
2023-02-03T13:46:04.299Z,100314.88
2023-02-03T13:48:31.009Z,100325.69
2023-02-03T13:51:15.960Z,100330.75
2023-02-03T13:53:43.150Z,100334.91
2023-02-03T13:56:16.275Z,100318.97
2023-02-03T13:58:42.483Z,100316.72
2023-02-03T14:01:08.709Z,100292.81
2023-02-03T14:03:34.906Z,100286.44
2023-02-03T14:06:04.047Z,100269.44
2023-02-03T14:08:30.262Z,100247.56
2023-02-03T14:11:15.070Z,100223.53
2023-02-03T14:13:41.314Z,100185.31
2023-02-03T14:16:14.458Z,100169.63
2023-02-03T14:18:46.828Z,100121.97
2023-02-03T14:21:14.806Z,100120.19
2023-02-03T14:23:42.647Z,100085.38
2023-02-03T14:26:14.832Z,100064.31
2023-02-03T14:28:44.522Z,100029.28
2023-02-03T14:31:11.670Z,99998.75
2023-02-03T14:33:55.992Z,99977.13
2023-02-03T14:36:28.143Z,99927.31
2023-02-03T14:38:54.563Z,99908.78
2023-02-03T14:41:26.670Z,99898.19
2023-02-03T14:44:00.470Z,99886.34
2023-02-03T14:46:40.371Z,99886.13
2023-02-03T14:49:18.885Z,99893.34
2023-02-03T14:51:53.922Z,99892.31
2023-02-03T14:54:30.367Z,99892.66
2023-02-03T14:56:59.583Z,99899.66
2023-02-03T14:59:28.596Z,99919.81
2023-02-03T15:02:20.953Z,99924.09
2023-02-03T15:04:47.299Z,99927.47
2023-02-03T15:07:32.218Z,99912.59
2023-02-03T15:09:58.439Z,99929.28
2023-02-03T15:12:25.360Z,99901.44
2023-02-03T15:14:51.946Z,99937.16
2023-02-03T15:17:22.312Z,99952.03
2023-02-03T15:19:48.559Z,99963.63
2023-02-03T15:22:21.578Z,99953.72
2023-02-03T15:24:47.875Z,99993.94
2023-02-03T15:27:23.863Z,99995.72
2023-02-03T15:29:50.110Z,100000.34
2023-02-03T15:32:18.166Z,100017.03
2023-02-03T15:34:48.013Z,100027.41
2023-02-03T15:37:16.705Z,100036.53
2023-02-03T15:39:47.884Z,100051.38
2023-02-03T15:42:34.411Z,100047.69
2023-02-03T15:45:14.449Z,100044.75
2023-02-03T15:47:41.415Z,100050.72
2023-02-03T15:50:14.155Z,100061.53
2023-02-03T15:52:40.352Z,100066.28
2023-02-03T15:55:16.982Z,100065.94
2023-02-03T15:57:44.047Z,100077.31
2023-02-03T16:00:28.665Z,100069.28
2023-02-03T16:02:54.910Z,100082.47
2023-02-03T16:05:25.545Z,100103.81
2023-02-03T16:07:51.859Z,100104.19
2023-02-03T16:10:33.533Z,100112.88
2023-02-03T16:13:17.925Z,100111.41
2023-02-03T16:15:44.181Z,100119.53
2023-02-03T16:18:16.649Z,100118.84
2023-02-03T16:20:49.467Z,100139.81
2023-02-03T16:23:22.152Z,100140.69
2023-02-03T16:26:03.657Z,100134.72
2023-02-03T16:28:32.187Z,100142.50
2023-02-03T16:31:13.357Z,100144.06
2023-02-03T16:33:39.633Z,100141.25
2023-02-03T16:36:12.761Z,100139.78
2023-02-03T16:38:38.971Z,100134.25
2023-02-03T16:41:05.884Z,100130.28
2023-02-03T16:43:32.115Z,100112.25
2023-02-03T16:45:58.782Z,100097.59
2023-02-03T16:48:25.008Z,100086.00
2023-02-03T16:50:51.275Z,100071.47
2023-02-03T16:53:18.640Z,100048.28
2023-02-03T16:55:44.900Z,100040.16
2023-02-03T16:58:11.120Z,100030.38
2023-02-03T17:00:37.417Z,99998.75
2023-02-03T17:03:03.912Z,99968.09
2023-02-03T17:05:30.443Z,99960.69
2023-02-03T17:07:56.842Z,99943.56
2023-02-03T17:10:23.583Z,99922.50
2023-02-03T17:12:51.202Z,99898.84
2023-02-03T17:15:17.404Z,99875.22
2023-02-03T17:17:43.629Z,99845.16
2023-02-03T17:20:09.951Z,99806.84
2023-02-03T17:22:36.154Z,99794.16
2023-02-03T17:25:02.440Z,99773.78
2023-02-03T17:27:28.679Z,99750.03
2023-02-03T17:29:54.883Z,99741.34
2023-02-03T17:32:21.112Z,99726.59
2023-02-03T17:34:47.307Z,99712.84
2023-02-03T17:37:13.526Z,99671.19
2023-02-03T17:53:19.500Z,99480.50
2023-02-03T17:55:45.707Z,99453.03
2023-02-03T17:58:11.915Z,99424.78
2023-02-03T18:00:38.117Z,99400.69
2023-02-03T18:03:04.333Z,99278.06
2023-02-03T18:05:30.535Z,99193.09
2023-02-03T18:07:56.760Z,99174.19
2023-02-03T18:10:22.958Z,99177.84
2023-02-03T18:12:49.178Z,99195.97
2023-02-03T18:15:15.377Z,99205.53
2023-02-03T18:17:41.598Z,99203.72
2023-02-03T18:20:08.083Z,99195.19
2023-02-03T18:22:34.289Z,99203.97
2023-02-03T18:25:03.362Z,99228.81
2023-02-03T18:27:29.571Z,99250.31
2023-02-03T18:29:55.779Z,99254.41
2023-02-03T18:32:21.977Z,99297.97
2023-02-03T18:34:48.184Z,99339.22
2023-02-03T18:37:14.401Z,99406.44
2023-02-03T18:39:40.617Z,99432.69
2023-02-03T18:42:06.826Z,99464.69
2023-02-03T18:44:33.041Z,99484.91
2023-02-03T18:46:59.238Z,99484.25
2023-02-03T18:49:25.442Z,99523.44
2023-02-03T18:51:51.636Z,99570.38
2023-02-03T18:54:17.844Z,99594.06
2023-02-03T18:56:44.036Z,99669.00
2023-02-03T18:59:10.452Z,99732.22
2023-02-03T19:01:36.841Z,99798.34
2023-02-03T19:04:03.128Z,99833.88
2023-02-03T19:06:29.551Z,99891.53
2023-02-03T19:08:55.853Z,99932.91
2023-02-03T19:11:22.100Z,99980.38
2023-02-03T19:13:48.329Z,100010.22
2023-02-03T19:16:15.038Z,100044.16
2023-02-03T19:18:41.325Z,100063.66
2023-02-03T19:21:07.534Z,100110.50
2023-02-03T19:23:33.740Z,100153.19
2023-02-03T19:25:59.962Z,100187.78
2023-02-03T19:28:30.831Z,100202.88
2023-02-03T19:31:08.488Z,100216.53
2023-02-03T19:33:35.218Z,100244.16
2023-02-03T19:36:01.466Z,100278.47
2023-02-03T19:38:27.693Z,100303.91
2023-02-03T19:40:53.913Z,100335.09
2023-02-03T19:43:20.115Z,100364.47
2023-02-03T19:45:46.345Z,100416.06
2023-02-03T19:48:12.547Z,100445.44
2023-02-03T19:50:38.766Z,100474.03
2023-02-03T19:53:04.963Z,100507.56
2023-02-03T19:55:31.175Z,100504.81
2023-02-03T19:57:57.720Z,100523.66
2023-02-03T20:00:23.925Z,100520.69
2023-02-03T20:02:50.134Z,100539.53
2023-02-03T20:05:16.338Z,100559.25
2023-02-03T20:07:42.536Z,100565.75
2023-02-03T20:10:08.879Z,100593.00
2023-02-03T20:12:35.079Z,100590.56
2023-02-03T20:15:01.296Z,100612.22
2023-02-03T20:17:27.875Z,100615.97
2023-02-03T20:19:54.091Z,100627.88
2023-02-03T20:22:20.300Z,100640.00
2023-02-03T20:24:46.504Z,100658.84
2023-02-03T20:27:12.705Z,100675.94
2023-02-03T20:29:38.920Z,100687.25
2023-02-03T20:32:05.254Z,100714.31
2023-02-03T20:34:31.498Z,100709.69
2023-02-03T20:36:57.712Z,100730.31
2023-02-03T20:39:23.924Z,100737.47
2023-02-03T20:41:50.140Z,100743.22
2023-02-03T20:44:16.569Z,100762.66
2023-02-03T20:46:42.845Z,100771.19
2023-02-03T20:49:15.814Z,100773.19
2023-02-03T20:51:42.048Z,100781.25
2023-02-03T20:54:13.210Z,100798.09
2023-02-03T20:56:39.412Z,100812.59
2023-02-03T20:59:08.196Z,100811.53
2023-02-03T21:01:34.509Z,100826.19
2023-02-03T21:04:00.708Z,100834.59
2023-02-03T21:06:27.662Z,100835.38
2023-02-03T21:08:53.876Z,100854.56
2023-02-03T21:11:20.534Z,100852.00
2023-02-03T21:13:47.139Z,100864.09
2023-02-03T21:16:17.045Z,100872.81
2023-02-03T21:18:43.220Z,100885.38
2023-02-03T21:21:15.532Z,100911.19
2023-02-03T21:23:42.339Z,100918.28
2023-02-03T21:26:17.716Z,100926.38
2023-02-03T21:28:43.924Z,100947.81
2023-02-03T21:31:20.782Z,100949.59
2023-02-03T21:33:47.035Z,100974.78
2023-02-03T21:36:14.621Z,100990.88
2023-02-03T21:38:40.822Z,100997.22
2023-02-03T21:41:16.919Z,101009.31
2023-02-03T21:43:43.687Z,101012.88
2023-02-03T21:46:19.759Z,101023.53
2023-02-03T21:48:47.937Z,101037.59
2023-02-03T21:51:21.425Z,101046.59
2023-02-03T21:53:49.010Z,101051.13
2023-02-03T21:56:16.202Z,101061.00
2023-02-03T21:58:42.424Z,101070.34
2023-02-03T22:01:08.660Z,101086.63
2023-02-03T22:03:36.035Z,101099.16
2023-02-03T22:06:02.212Z,101108.84
2023-02-03T22:08:28.417Z,101114.81
2023-02-03T22:10:54.633Z,101117.75
2023-02-03T22:13:20.830Z,101136.63
2023-02-03T22:15:47.050Z,101145.94
2023-02-03T22:18:13.263Z,101159.66
2023-02-03T22:20:39.470Z,101176.56
2023-02-03T22:23:05.680Z,101193.63
2023-02-03T22:25:31.878Z,101193.63
2023-02-03T22:27:58.146Z,101206.53
2023-02-03T22:30:24.361Z,101211.34
2023-02-03T22:32:50.579Z,101230.66
2023-02-03T22:35:16.798Z,101232.63
2023-02-03T22:37:43.011Z,101233.94
2023-02-03T22:40:09.541Z,101248.63
2023-02-03T22:42:35.751Z,101277.00
2023-02-03T22:45:01.955Z,101272.66
2023-02-03T22:47:28.164Z,101282.00
2023-02-03T22:49:54.373Z,101288.13
2023-02-03T22:52:20.575Z,101290.06
2023-02-03T22:54:46.767Z,101305.72
2023-02-03T22:57:12.969Z,101305.38
2023-02-03T22:59:39.163Z,101316.22
2023-02-03T23:02:05.380Z,101333.75
2023-02-03T23:04:31.636Z,101331.69
2023-02-03T23:06:57.856Z,101336.50
2023-02-03T23:09:24.063Z,101343.00
2023-02-03T23:11:50.266Z,101352.16
2023-02-03T23:14:16.476Z,101370.06
2023-02-03T23:16:43.002Z,101368.28
2023-02-03T23:19:09.214Z,101371.84
2023-02-03T23:21:35.428Z,101384.91
2023-02-03T23:24:01.628Z,101408.28
2023-02-03T23:26:27.833Z,101405.25
2023-02-03T23:28:54.037Z,101424.91
2023-02-03T23:31:20.378Z,101420.59
2023-02-03T23:33:46.656Z,101439.63
2023-02-03T23:36:12.858Z,101447.84
2023-02-03T23:38:39.046Z,101458.16
2023-02-03T23:41:05.253Z,101468.66
2023-02-03T23:43:31.490Z,101475.56
2023-02-03T23:45:57.735Z,101495.56
2023-02-03T23:48:23.988Z,101518.28
2023-02-03T23:50:50.228Z,101531.69
2023-02-03T23:53:16.435Z,101544.59
2023-02-03T23:55:42.641Z,101574.09
2023-02-03T23:58:08.869Z,101580.06
